Colorado Springs, CO (80939)

2:58 PM MDT on March 29, 2017 (GMT -0600)
Cattle Dr | | Change Station

Elev 6581 ft 38.88 °N, 104.69 °W | Updated 16 seconds ago

Mostly Cloudy
Mostly Cloudy
48.7 °F
Feels Like 47 °F
N
4.0
Wind Variable Wind from SSW
Gusts 4.9 mph

Today
High -- | Low -- °F
--% Chance of Precip.
Yesterday
High -- | Low -- °F
Precip. -- in
Pressure 29.96 in
Visibility 10.0 miles
Clouds Few 3800 ft
Scattered Clouds 7000 ft
Scattered Clouds 24000 ft
Windchill 47 °F
Dew Point 29 °F
Humidity 46%
Rainfall 0.00 in
Snow Depth Not available.
6:47 AM 7:19 PM
Waxing Crescent, 4% visible
METAR KCOS 292054Z 34024G30KT 10SM FEW038 SCT070 SCT240 10/M02 A2999 RMK AO2 PK WND 34039/2027 SLP144 T01001017 56018
Pressure 29.96 in
Visibility 10.0 miles
Clouds Few 3800 ft
Scattered Clouds 7000 ft
Scattered Clouds 24000 ft
Windchill 47 °F
Dew Point 29 °F
Humidity 46%
Rainfall 0.00 in
Snow Depth Not available.
6:47 AM 7:19 PM
Waxing Crescent, 4% visible
METAR KCOS 292054Z 34024G30KT 10SM FEW038 SCT070 SCT240 10/M02 A2999 RMK AO2 PK WND 34039/2027 SLP144 T01001017 56018

Get Severe Weather Alerts

Thanks for signing up!

Be on the lookout for a verification email in your inbox.

You'll start receiving the daily forecast at 8 AM.

×

10-Day Weather Forecast

Almanac

Astronomy

Mar. 29, 2017 Rise Set
Actual Time
Civil Twilight
Nautical Twilight
Astronomical Twilight
Moon
Length of Visible Light
Length of Day
Tomorrow will be .
, % of the Moon is Illuminated

Today's Extremes

State Highs State Lows

Community

WunderPhotos

Upload Photos

1,962,540 photos uploaded!

WunderBlog® & News

Nearby

Air Quality

  Air Quality AQ Index Pollutant
Not available.

Snow Depth

Station Depth Elevation

Earthquake Activity

City Distance Mag. Time & Date
Minimum magnitude displayed is 2.5.

Earthquake Activity

City Distance Mag. Time & Date
Minimum magnitude displayed is 2.5.

Coastal Water Temperatures

Place Temperature

Stations

Nearby Weather Stations

Station Location Temp. Windchill Dew Point Humidity Wind Precip. Elev Updated Type
                   

Watches & Warnings

There are currently no watches in effect.